Time;durP1;ratioP1;P1;durP2;ratioP2;P2;SDS_P1;SDS_P2;PMS_P1;PMS_P2;Temp;Humidity;BMP_temperature;BMP_pressure;BME280_temperature;BME280_humidity;BME280_pressure;Samples;Min_cycle;Max_cycle;Signal;HPM_P1;HPM_P2
2023/07/02 00:01:57;;;;;;;22.10;9.85;;;;;;;16.60;83.15;100673.22;5019914;28;20053;-65
2023/07/02 00:04:23;;;;;;;21.08;9.30;;;;;;;16.60;83.34;100671.38;5022410;28;20040;-65
2023/07/02 00:06:48;;;;;;;21.73;10.70;;;;;;;16.57;83.53;100665.63;5020372;28;20059;-66
2023/07/02 00:09:14;;;;;;;23.55;10.10;;;;;;;16.55;83.30;100673.06;5021031;28;20497;-65
2023/07/02 00:11:43;;;;;;;20.58;10.07;;;;;;;16.50;83.35;100654.94;5023474;28;20028;-65
2023/07/02 00:14:09;;;;;;;22.77;10.43;;;;;;;16.55;83.25;100646.25;5024799;28;20394;-66
2023/07/02 00:16:41;;;;;;;19.73;9.88;;;;;;;16.54;83.31;100623.97;5026203;28;20115;-65
2023/07/02 00:19:06;;;;;;;22.23;10.65;;;;;;;16.53;83.18;100616.16;5015740;28;20037;-65
2023/07/02 00:21:33;;;;;;;20.67;10.55;;;;;;;16.50;83.26;100627.31;5018221;28;20032;-65
2023/07/02 00:23:59;;;;;;;25.17;10.48;;;;;;;16.49;82.99;100645.25;5014242;28;20026;-66
2023/07/02 00:26:25;;;;;;;23.95;10.82;;;;;;;16.42;83.39;100645.25;5027316;28;20570;-66
2023/07/02 00:28:51;;;;;;;28.80;11.50;;;;;;;16.37;83.69;100663.84;5023710;28;20101;-65
2023/07/02 00:31:16;;;;;;;26.67;11.77;;;;;;;16.31;83.53;100659.34;5029360;28;20021;-66
2023/07/02 00:33:41;;;;;;;24.98;11.48;;;;;;;16.28;84.08;100673.16;5023484;28;20021;-65
2023/07/02 00:36:07;;;;;;;26.50;10.95;;;;;;;16.28;84.29;100677.69;5030013;28;20045;-66
2023/07/02 00:38:32;;;;;;;28.75;12.05;;;;;;;16.28;83.93;100672.34;5030226;28;20033;-65
2023/07/02 00:40:58;;;;;;;26.70;12.35;;;;;;;16.28;84.06;100673.16;5026983;28;20027;-65
2023/07/02 00:43:23;;;;;;;24.73;11.93;;;;;;;16.27;83.92;100670.69;5029058;28;20103;-65
2023/07/02 00:45:48;;;;;;;28.83;12.45;;;;;;;16.28;83.95;100675.03;5024346;28;20029;-65
2023/07/02 00:48:14;;;;;;;24.98;12.25;;;;;;;16.27;83.97;100679.56;5017941;28;20030;-65
2023/07/02 00:50:40;;;;;;;28.40;12.55;;;;;;;16.30;84.13;100679.13;5023182;28;20115;-65
2023/07/02 00:53:05;;;;;;;24.75;12.05;;;;;;;16.30;83.88;100687.16;5023229;28;20491;-66
2023/07/02 00:55:30;;;;;;;25.70;12.23;;;;;;;16.30;83.91;100676.44;5021724;28;20029;-65
2023/07/02 00:57:56;;;;;;;26.35;12.45;;;;;;;16.30;84.22;100681.00;5018082;28;20497;-65
2023/07/02 01:00:22;;;;;;;28.15;12.98;;;;;;;16.29;84.15;100688.19;5025648;28;20026;-65
2023/07/02 01:02:58;;;;;;;26.63;12.48;;;;;;;16.28;83.96;100680.38;5022312;28;20017;-65
2023/07/02 01:05:35;;;;;;;28.90;12.90;;;;;;;16.28;83.80;100688.41;5028149;28;20036;-66
2023/07/02 01:08:00;;;;;;;23.67;13.02;;;;;;;16.27;83.81;100687.59;5014397;28;20022;-65
2023/07/02 01:10:26;;;;;;;27.92;13.77;;;;;;;16.27;83.79;100695.63;5024312;28;20032;-65
2023/07/02 01:12:52;;;;;;;35.25;14.07;;;;;;;16.25;84.25;100694.19;5027724;28;20028;-65
2023/07/02 01:15:17;;;;;;;29.13;14.02;;;;;;;16.23;84.23;100688.22;5015237;28;20029;-66
2023/07/02 01:17:43;;;;;;;31.80;14.38;;;;;;;16.21;84.38;100692.97;5023795;28;20029;-65
2023/07/02 01:20:10;;;;;;;29.83;14.70;;;;;;;16.16;84.29;100701.63;5028925;28;20030;-65
2023/07/02 01:22:36;;;;;;;35.08;16.17;;;;;;;16.14;84.52;100701.00;5028188;28;20036;-65
2023/07/02 01:25:01;;;;;;;30.95;14.63;;;;;;;16.07;84.62;100702.91;5023085;28;20029;-65
2023/07/02 01:27:30;;;;;;;37.50;15.20;;;;;;;16.00;85.10;100707.44;5029551;28;20029;-65
2023/07/02 01:29:56;;;;;;;31.45;16.25;;;;;;;15.99;85.00;100705.81;5019729;28;20025;-65
2023/07/02 01:32:22;;;;;;;30.60;15.27;;;;;;;15.97;85.52;100710.56;5022323;28;20028;-65
2023/07/02 01:34:48;;;;;;;34.72;16.23;;;;;;;15.93;85.68;100712.81;5025620;28;20037;-65
2023/07/02 01:37:14;;;;;;;37.15;16.58;;;;;;;15.88;85.48;100709.94;5024237;28;20017;-65
2023/07/02 01:39:39;;;;;;;35.10;16.25;;;;;;;15.82;85.91;100707.25;5026238;28;20026;-66
2023/07/02 01:42:15;;;;;;;34.95;15.65;;;;;;;15.78;86.32;100706.88;5014775;28;20032;-65
2023/07/02 01:44:41;;;;;;;33.42;15.98;;;;;;;15.75;86.20;100716.13;5022091;28;20025;-65
2023/07/02 01:47:06;;;;;;;33.38;15.73;;;;;;;15.69;86.07;100714.28;5030006;28;20483;-65
2023/07/02 01:49:32;;;;;;;37.58;16.52;;;;;;;15.65;86.45;100715.75;5023574;28;20090;-65
2023/07/02 01:51:57;;;;;;;34.85;15.60;;;;;;;15.62;86.74;100715.34;5019741;28;20167;-65
2023/07/02 01:54:26;;;;;;;29.30;14.93;;;;;;;15.56;86.90;100718.78;5025062;28;20055;-65
2023/07/02 01:56:52;;;;;;;41.70;16.13;;;;;;;15.53;86.75;100716.50;5023018;28;20048;-66
2023/07/02 01:59:17;;;;;;;32.03;15.63;;;;;;;15.46;86.91;100716.53;5025511;28;20618;-65
2023/07/02 02:01:43;;;;;;;35.63;15.50;;;;;;;15.40;86.96;100718.19;5029531;28;20033;-65
2023/07/02 02:04:09;;;;;;;33.22;15.75;;;;;;;15.38;87.20;100714.88;5016884;28;20100;-66
2023/07/02 02:06:34;;;;;;;29.88;14.40;;;;;;;15.39;87.50;100716.53;5020342;28;20045;-65
2023/07/02 02:09:00;;;;;;;35.00;15.90;;;;;;;15.38;87.30;100714.88;5018876;28;20378;-66
2023/07/02 02:11:26;;;;;;;33.47;16.30;;;;;;;15.40;87.25;100714.69;5021968;28;20124;-65
2023/07/02 02:13:51;;;;;;;28.92;15.23;;;;;;;15.39;87.47;100716.53;5025557;28;20108;-66
2023/07/02 02:16:16;;;;;;;34.92;15.27;;;;;;;15.38;86.78;100720.22;5036331;28;20079;-65
2023/07/02 02:18:42;;;;;;;29.13;14.35;;;;;;;15.35;86.85;100717.16;5023266;28;20025;-65
2023/07/02 02:21:07;;;;;;;33.75;14.60;;;;;;;15.32;86.64;100720.19;5023197;28;20029;-65
2023/07/02 02:23:33;;;;;;;26.23;13.02;;;;;;;15.35;86.16;100725.16;5026085;28;20499;-66
2023/07/02 02:25:58;;;;;;;29.40;12.52;;;;;;;15.32;85.11;100720.19;5023309;28;20044;-66
2023/07/02 02:28:23;;;;;;;26.65;12.93;;;;;;;15.27;84.78;100734.19;5027209;28;20026;-65
2023/07/02 02:30:48;;;;;;;31.25;12.73;;;;;;;15.22;84.34;100730.50;5013703;28;20036;-66
2023/07/02 02:33:14;;;;;;;26.00;12.30;;;;;;;15.14;84.06;100727.00;5014848;28;20399;-65
2023/07/02 02:35:39;;;;;;;29.13;12.35;;;;;;;15.06;83.58;100729.03;5030293;28;20021;-65
2023/07/02 02:38:04;;;;;;;27.13;11.77;;;;;;;15.02;83.91;100733.13;5022383;28;20490;-65
2023/07/02 02:40:30;;;;;;;25.83;12.55;;;;;;;14.96;84.03;100734.75;5019944;28;20029;-66
2023/07/02 02:42:55;;;;;;;25.77;12.27;;;;;;;14.96;83.53;100739.28;5027175;28;20025;-65
2023/07/02 02:45:20;;;;;;;28.77;12.05;;;;;;;14.91;83.57;100744.41;5022968;28;20032;-66
2023/07/02 02:47:46;;;;;;;29.00;12.07;;;;;;;14.88;83.43;100742.97;5020461;28;20021;-65
2023/07/02 02:50:13;;;;;;;26.10;11.57;;;;;;;14.90;83.30;100753.47;5024844;28;20371;-67
2023/07/02 02:52:38;;;;;;;27.20;12.23;;;;;;;14.89;83.49;100744.63;5021834;28;20038;-65
2023/07/02 02:55:06;;;;;;;28.33;11.70;;;;;;;14.86;83.18;100743.16;5021403;28;20030;-66
2023/07/02 02:57:32;;;;;;;29.52;11.68;;;;;;;14.87;83.31;100749.34;5010682;28;20804;-65
2023/07/02 02:59:58;;;;;;;28.30;12.35;;;;;;;14.85;83.26;100751.38;5025397;28;20422;-66
2023/07/02 03:02:23;;;;;;;25.73;12.02;;;;;;;14.81;82.86;100756.31;5017053;28;20044;-66
2023/07/02 03:04:49;;;;;;;31.55;11.85;;;;;;;14.79;83.22;100752.19;5023923;28;20430;-67
2023/07/02 03:07:15;;;;;;;23.48;12.10;;;;;;;14.79;83.10;100762.88;5023700;28;20025;-65
2023/07/02 03:09:40;;;;;;;28.35;12.82;;;;;;;14.78;82.96;100756.72;5032354;28;20103;-66
2023/07/02 03:12:06;;;;;;;29.00;12.13;;;;;;;14.77;83.29;100763.09;5019721;28;20037;-65
2023/07/02 03:14:31;;;;;;;30.83;12.48;;;;;;;14.75;82.75;100761.66;5027707;28;20030;-65
2023/07/02 03:16:56;;;;;;;29.17;12.05;;;;;;;14.73;82.69;100763.66;5021313;28;20025;-65
2023/07/02 03:19:22;;;;;;;22.75;11.35;;;;;;;14.71;82.37;100760.38;5022226;28;20033;-65
2023/07/02 03:21:47;;;;;;;24.30;10.88;;;;;;;14.69;81.93;100763.25;5019525;28;20572;-65
2023/07/02 03:24:13;;;;;;;25.05;10.60;;;;;;;14.67;81.67;100767.97;5024395;28;20032;-65
2023/07/02 03:26:41;;;;;;;22.42;10.43;;;;;;;14.65;81.10;100766.53;5020340;28;20025;-66
2023/07/02 03:29:06;;;;;;;22.25;10.32;;;;;;;14.62;80.89;100778.44;5030234;28;20093;-65
2023/07/02 03:31:32;;;;;;;21.92;9.63;;;;;;;14.61;80.81;100779.47;5019864;28;20112;-65
2023/07/02 03:33:57;;;;;;;27.52;11.00;;;;;;;14.55;80.46;100778.41;5021783;28;20048;-66
2023/07/02 03:36:22;;;;;;;27.42;10.80;;;;;;;14.57;80.45;100780.88;5023368;28;20032;-65
2023/07/02 03:38:47;;;;;;;25.20;11.18;;;;;;;14.56;80.11;100784.56;5017884;28;20029;-65
2023/07/02 03:41:13;;;;;;;26.25;10.70;;;;;;;14.54;79.97;100791.97;5023038;28;20503;-65
2023/07/02 03:43:38;;;;;;;25.20;10.50;;;;;;;14.51;79.28;100790.53;5016055;28;20063;-65
2023/07/02 03:46:03;;;;;;;24.33;9.45;;;;;;;14.51;79.42;100798.53;5013539;28;20108;-66
2023/07/02 03:48:29;;;;;;;20.10;9.95;;;;;;;14.49;78.80;100795.25;5022904;28;20187;-65
2023/07/02 03:50:54;;;;;;;28.90;9.60;;;;;;;14.46;78.81;100795.63;5022982;28;20423;-65
2023/07/02 03:53:19;;;;;;;21.92;9.80;;;;;;;14.44;78.44;100788.81;5018911;28;20037;-65
2023/07/02 03:55:44;;;;;;;28.40;9.35;;;;;;;14.42;78.29;100790.81;5021849;28;20718;-64
2023/07/02 03:58:10;;;;;;;27.60;9.45;;;;;;;14.43;77.71;100787.16;5022629;28;20018;-65
2023/07/02 04:00:35;;;;;;;22.40;8.90;;;;;;;14.43;77.07;100789.84;5023230;28;20030;-65
2023/07/02 04:03:02;;;;;;;21.67;9.23;;;;;;;14.43;76.91;100796.00;5023012;28;20034;-64
2023/07/02 04:05:27;;;;;;;21.17;8.38;;;;;;;14.42;76.56;100798.84;5029606;28;20112;-65
2023/07/02 04:07:52;;;;;;;20.10;8.68;;;;;;;14.38;76.31;100802.94;5023316;28;20141;-66
2023/07/02 04:10:18;;;;;;;22.65;9.15;;;;;;;14.36;76.22;100799.63;5029178;28;20037;-65
2023/07/02 04:12:44;;;;;;;20.40;8.70;;;;;;;14.34;75.65;100801.69;5016526;28;20034;-66
2023/07/02 04:15:09;;;;;;;19.58;8.77;;;;;;;14.31;75.76;100800.22;5021115;28;20048;-65
2023/07/02 04:17:35;;;;;;;22.88;8.80;;;;;;;14.30;75.51;100800.41;5027470;28;20620;-65
2023/07/02 04:20:06;;;;;;;19.05;8.50;;;;;;;14.27;75.51;100801.63;5018608;28;20052;-65
2023/07/02 04:22:32;;;;;;;22.73;9.77;;;;;;;14.25;75.43;100801.84;5019746;28;20114;-64
2023/07/02 04:24:57;;;;;;;22.05;9.18;;;;;;;14.23;75.15;100817.25;5025875;28;20112;-65
2023/07/02 04:27:22;;;;;;;21.30;8.95;;;;;;;14.24;75.03;100810.03;5024921;28;20491;-66
2023/07/02 04:29:49;;;;;;;22.10;8.95;;;;;;;14.23;74.98;100806.56;5027003;28;20026;-65
2023/07/02 04:32:14;;;;;;;27.65;9.02;;;;;;;14.24;75.05;100816.22;5027199;28;20155;-65
2023/07/02 04:34:39;;;;;;;23.80;9.00;;;;;;;14.22;75.19;100820.94;5022627;28;20112;-65
2023/07/02 04:37:05;;;;;;;23.33;9.63;;;;;;;14.26;75.66;100821.34;5022686;28;20032;-66
2023/07/02 04:39:31;;;;;;;23.27;9.52;;;;;;;14.29;75.74;100826.31;5023230;28;20032;-65
2023/07/02 04:41:56;;;;;;;22.52;9.77;;;;;;;14.34;75.83;100825.72;5024884;28;20676;-65
2023/07/02 04:44:29;;;;;;;24.05;9.73;;;;;;;14.37;75.79;100828.00;5026405;28;20032;-65
2023/07/02 04:46:58;;;;;;;23.33;10.43;;;;;;;14.40;76.46;100828.44;5026334;28;20399;-65
2023/07/02 04:49:23;;;;;;;22.05;9.85;;;;;;;14.44;76.24;100827.03;5027037;28;20033;-66
2023/07/02 04:51:49;;;;;;;26.95;10.25;;;;;;;14.46;76.81;100826.88;5026707;28;20040;-64
2023/07/02 04:54:14;;;;;;;25.95;11.13;;;;;;;14.49;77.09;100831.81;5026633;28;20029;-65
2023/07/02 04:56:39;;;;;;;24.17;10.43;;;;;;;14.50;77.17;100838.81;5022424;28;20026;-65
2023/07/02 04:59:04;;;;;;;27.60;10.93;;;;;;;14.51;76.98;100841.28;5025179;28;20147;-65
2023/07/02 05:01:30;;;;;;;25.33;9.95;;;;;;;14.54;76.93;100850.75;5025295;28;20040;-65
2023/07/02 05:03:55;;;;;;;25.40;9.88;;;;;;;14.55;76.43;100842.53;5023610;28;20445;-65
2023/07/02 05:06:20;;;;;;;27.80;9.90;;;;;;;14.59;75.91;100831.47;5021818;28;20471;-65
2023/07/02 05:08:45;;;;;;;23.95;9.93;;;;;;;14.70;75.77;100852.28;5015067;28;20507;-66
2023/07/02 05:11:11;;;;;;;25.45;10.23;;;;;;;14.73;75.67;100849.22;5013000;28;20033;-65
2023/07/02 05:13:36;;;;;;;25.08;10.32;;;;;;;14.75;75.37;100848.03;5026550;28;20039;-66
2023/07/02 05:16:01;;;;;;;25.10;9.60;;;;;;;14.79;75.20;100851.94;5024233;28;20033;-65
2023/07/02 05:18:27;;;;;;;23.90;8.60;;;;;;;14.80;75.13;100853.59;5023172;28;20061;-65
2023/07/02 05:20:52;;;;;;;19.27;9.40;;;;;;;14.84;74.76;100860.19;5026526;28;20025;-65
2023/07/02 05:23:17;;;;;;;28.55;9.70;;;;;;;14.87;74.15;100854.44;5024212;28;20036;-66
2023/07/02 05:25:43;;;;;;;29.58;9.73;;;;;;;14.92;73.96;100864.53;5023205;28;20055;-65
2023/07/02 05:28:08;;;;;;;26.00;9.07;;;;;;;14.98;73.63;100869.09;5023902;28;20021;-66
2023/07/02 05:30:33;;;;;;;21.30;8.70;;;;;;;15.02;72.67;100859.63;5023487;28;20034;-65
2023/07/02 05:32:58;;;;;;;22.40;9.05;;;;;;;15.08;72.77;100874.91;5024169;28;20021;-65
2023/07/02 05:35:23;;;;;;;23.15;8.75;;;;;;;15.14;72.82;100871.44;5027951;28;20078;-65
2023/07/02 05:37:49;;;;;;;21.58;8.95;;;;;;;15.17;72.44;100876.38;5022189;28;20030;-65
2023/07/02 05:40:14;;;;;;;26.77;8.90;;;;;;;15.24;72.33;100878.25;5018667;28;20034;-65
2023/07/02 05:42:39;;;;;;;25.35;8.98;;;;;;;15.29;72.25;100875.81;5027424;28;20494;-65
2023/07/02 05:45:05;;;;;;;23.70;9.20;;;;;;;15.33;72.15;100880.56;5020703;28;20025;-66
2023/07/02 05:47:30;;;;;;;22.35;9.38;;;;;;;15.39;71.62;100890.47;5020021;28;20486;-65
2023/07/02 05:49:55;;;;;;;23.83;9.55;;;;;;;15.44;71.78;100887.19;5027656;28;20037;-65
2023/07/02 05:52:22;;;;;;;26.08;9.13;;;;;;;15.49;71.91;100882.03;5023783;28;20029;-65
2023/07/02 05:54:47;;;;;;;20.80;9.00;;;;;;;15.50;71.53;100887.19;5020357;28;20036;-65
2023/07/02 05:57:13;;;;;;;22.95;8.80;;;;;;;15.54;71.46;100884.94;5013429;28;20033;-65
2023/07/02 05:59:38;;;;;;;22.00;9.35;;;;;;;15.57;71.20;100889.06;5017632;28;20030;-66
2023/07/02 06:02:03;;;;;;;24.10;8.35;;;;;;;15.54;71.33;100892.97;5022336;28;21545;-68
2023/07/02 06:04:28;;;;;;;24.92;8.90;;;;;;;15.55;71.34;100897.28;5028682;28;20029;-65
2023/07/02 06:06:54;;;;;;;26.40;9.18;;;;;;;15.56;71.13;100896.25;5020957;28;20479;-65
2023/07/02 06:09:19;;;;;;;27.17;9.02;;;;;;;15.62;71.54;100897.38;5023576;28;20021;-65
2023/07/02 06:11:44;;;;;;;25.73;9.35;;;;;;;15.62;71.28;100900.03;5014753;28;20036;-66
2023/07/02 06:14:09;;;;;;;24.80;8.88;;;;;;;15.68;71.38;100896.56;5027538;28;20053;-65
2023/07/02 06:16:35;;;;;;;23.60;9.07;;;;;;;15.68;71.43;100905.41;5023217;28;20033;-65
2023/07/02 06:19:00;;;;;;;22.23;9.02;;;;;;;15.72;71.20;100908.50;5020089;28;20026;-65
2023/07/02 06:21:29;;;;;;;22.00;9.02;;;;;;;15.72;71.31;100914.69;5014781;28;20025;-68
2023/07/02 06:23:55;;;;;;;23.25;8.68;;;;;;;15.75;70.66;100914.28;5024291;28;20052;-66
2023/07/02 06:26:20;;;;;;;20.85;7.97;;;;;;;15.79;70.62;100904.81;5025157;28;20052;-65
2023/07/02 06:28:45;;;;;;;24.17;8.40;;;;;;;15.86;70.37;100918.19;5019783;28;20025;-65
2023/07/02 06:31:12;;;;;;;19.90;7.80;;;;;;;15.90;70.70;100921.28;5024922;28;20036;-65
2023/07/02 06:33:39;;;;;;;21.92;8.02;;;;;;;15.91;70.03;100912.25;5019543;28;20030;-65
2023/07/02 06:36:04;;;;;;;20.55;7.90;;;;;;;15.96;70.15;100915.97;5021226;28;20577;-65
2023/07/02 06:38:30;;;;;;;23.27;8.13;;;;;;;15.98;69.72;100921.94;5024381;28;20109;-65
2023/07/02 06:40:55;;;;;;;21.80;7.65;;;;;;;15.99;69.50;100926.28;5019607;28;20032;-64
2023/07/02 06:43:20;;;;;;;23.15;8.85;;;;;;;16.08;69.66;100925.03;5025294;28;20517;-63
2023/07/02 06:45:46;;;;;;;33.67;12.32;;;;;;;16.15;70.33;100925.03;5019233;28;20088;-63
2023/07/02 06:48:11;;;;;;;22.92;8.95;;;;;;;16.22;70.70;100930.44;5025620;28;20029;-63
2023/07/02 06:50:36;;;;;;;28.60;8.90;;;;;;;16.27;70.51;100936.00;5025484;28;20125;-63
2023/07/02 06:53:01;;;;;;;20.48;7.72;;;;;;;16.31;69.55;100945.25;5027560;28;20029;-63
2023/07/02 06:55:26;;;;;;;24.52;8.27;;;;;;;16.36;70.17;100932.91;5018978;28;20025;-63
2023/07/02 06:57:53;;;;;;;22.50;7.70;;;;;;;16.37;69.86;100939.91;5022414;28;20441;-63
2023/07/02 07:00:18;;;;;;;17.65;7.03;;;;;;;16.43;69.80;100941.75;5023827;28;20025;-63
2023/07/02 07:02:43;;;;;;;27.40;7.78;;;;;;;16.49;69.48;100950.03;5021835;28;20491;-62
2023/07/02 07:05:09;;;;;;;19.80;7.43;;;;;;;16.51;69.12;100954.16;5020437;28;20044;-63
2023/07/02 07:07:35;;;;;;;19.17;7.30;;;;;;;16.54;68.92;100956.41;5028261;28;20037;-63
2023/07/02 07:10:00;;;;;;;19.92;7.88;;;;;;;16.58;68.58;100956.81;5020859;28;20018;-63
2023/07/02 07:12:25;;;;;;;24.20;7.40;;;;;;;16.60;68.31;100962.78;5025836;28;20035;-63
2023/07/02 07:14:50;;;;;;;18.67;7.90;;;;;;;16.62;68.80;100960.72;5021768;28;20499;-63
2023/07/02 07:17:16;;;;;;;19.52;7.57;;;;;;;16.65;68.41;100963.81;5022538;28;20025;-63
2023/07/02 07:19:41;;;;;;;21.52;7.30;;;;;;;16.64;68.22;100959.50;5023798;28;20406;-62
2023/07/02 07:22:06;;;;;;;19.63;7.28;;;;;;;16.65;67.84;100971.03;5028720;28;20082;-62
2023/07/02 07:24:31;;;;;;;18.33;7.22;;;;;;;16.66;67.30;100970.03;5026642;28;20029;-62
2023/07/02 07:26:57;;;;;;;19.42;7.40;;;;;;;16.64;66.94;100972.91;5024602;28;20049;-63
2023/07/02 07:29:22;;;;;;;22.02;7.75;;;;;;;16.65;67.16;100979.09;5023058;28;20104;-62
2023/07/02 07:31:47;;;;;;;18.90;7.28;;;;;;;16.70;67.01;100976.63;5025098;28;20083;-62
2023/07/02 07:34:12;;;;;;;22.38;7.43;;;;;;;16.75;66.21;100979.50;5016352;28;20498;-63
2023/07/02 07:36:38;;;;;;;17.48;7.22;;;;;;;16.79;66.23;100985.31;5020029;28;20029;-62
2023/07/02 07:39:03;;;;;;;19.15;6.65;;;;;;;16.84;66.67;100988.19;5028681;28;20017;-62
2023/07/02 07:41:28;;;;;;;18.73;7.05;;;;;;;16.88;66.94;101000.97;5024458;28;20544;-63
2023/07/02 07:43:53;;;;;;;17.38;6.60;;;;;;;16.93;66.46;101003.84;5021198;28;20032;-63
2023/07/02 07:46:19;;;;;;;19.92;7.28;;;;;;;16.88;65.84;101011.72;5024588;28;20022;-64
2023/07/02 07:48:44;;;;;;;15.60;6.38;;;;;;;16.86;65.33;100992.31;5020470;28;20018;-64
2023/07/02 07:51:10;;;;;;;21.80;6.95;;;;;;;16.88;66.24;100997.47;5016504;28;20101;-64
2023/07/02 07:53:38;;;;;;;17.67;6.80;;;;;;;16.88;65.27;101003.66;5027178;28;20510;-64
2023/07/02 07:56:04;;;;;;;16.80;6.78;;;;;;;16.92;66.05;100994.16;5015073;28;20026;-65
2023/07/02 07:58:31;;;;;;;18.00;5.80;;;;;;;16.94;65.36;101005.50;5020140;28;20045;-65
2023/07/02 08:00:57;;;;;;;16.30;6.13;;;;;;;16.93;65.08;101003.84;5025503;28;20421;-64
2023/07/02 08:03:22;;;;;;;17.80;6.97;;;;;;;16.95;65.18;101007.16;5015339;28;20025;-64
2023/07/02 08:05:47;;;;;;;17.42;5.68;;;;;;;16.96;64.32;101003.44;5020352;28;20049;-64
2023/07/02 08:08:12;;;;;;;14.43;6.03;;;;;;;17.02;63.81;100997.22;5025574;28;20076;-64
2023/07/02 08:10:38;;;;;;;16.02;6.53;;;;;;;16.99;63.26;101011.06;5019813;28;20414;-64
2023/07/02 08:13:03;;;;;;;15.07;6.30;;;;;;;17.07;63.14;101004.69;5018554;28;20025;-64
2023/07/02 08:15:28;;;;;;;13.35;6.30;;;;;;;17.11;63.53;101008.59;5016520;28;20044;-64
2023/07/02 08:17:57;;;;;;;43.63;9.27;;;;;;;17.23;63.77;101014.13;5026023;28;20025;-64
2023/07/02 08:20:22;;;;;;;18.45;6.18;;;;;;;17.28;63.96;101025.88;5017920;28;20125;-64
2023/07/02 08:22:48;;;;;;;15.60;5.85;;;;;;;17.30;62.92;101017.63;5024459;28;20101;-64
2023/07/02 08:25:13;;;;;;;16.83;6.28;;;;;;;17.35;62.84;101017.81;5015212;28;20034;-64
2023/07/02 08:27:38;;;;;;;14.93;6.38;;;;;;;17.41;62.45;101027.72;5025966;28;20036;-64
2023/07/02 08:30:04;;;;;;;16.13;5.95;;;;;;;17.35;61.86;101033.94;5024175;28;20033;-64
2023/07/02 08:32:31;;;;;;;11.77;5.68;;;;;;;17.30;61.95;101049.81;5026690;28;20029;-64
2023/07/02 08:34:56;;;;;;;19.50;6.25;;;;;;;17.13;61.69;101037.91;5025574;28;20090;-64
2023/07/02 08:37:22;;;;;;;12.63;5.75;;;;;;;17.05;61.77;101030.88;5023089;28;20097;-64
2023/07/02 08:39:48;;;;;;;19.35;6.35;;;;;;;16.98;62.02;101033.56;5021603;28;20030;-64
2023/07/02 08:42:14;;;;;;;17.15;6.32;;;;;;;16.91;60.85;101040.78;5023853;28;20029;-64
2023/07/02 08:44:41;;;;;;;19.73;5.88;;;;;;;16.84;60.80;101039.97;5028965;28;20044;-64
2023/07/02 08:47:06;;;;;;;19.42;6.22;;;;;;;16.80;60.74;101038.75;5026109;28;20033;-65
2023/07/02 08:49:31;;;;;;;18.60;6.55;;;;;;;16.78;60.90;101038.13;5024885;28;20018;-64
2023/07/02 08:51:58;;;;;;;17.25;6.40;;;;;;;16.92;61.44;101042.44;5021045;28;20533;-64
2023/07/02 08:54:23;;;;;;;17.60;5.95;;;;;;;17.08;61.59;101040.38;5022116;28;20100;-64
2023/07/02 08:56:48;;;;;;;16.17;6.07;;;;;;;17.12;61.56;101044.28;5025838;28;20029;-64
2023/07/02 08:59:13;;;;;;;17.42;6.63;;;;;;;17.21;61.97;101041.19;5021126;28;20033;-66
2023/07/02 09:01:50;;;;;;;15.07;6.10;;;;;;;17.29;61.50;101037.44;5023798;28;20029;-64
2023/07/02 09:04:25;;;;;;;20.48;6.20;;;;;;;17.28;61.01;101049.22;5026003;28;20057;-64
2023/07/02 09:07:02;;;;;;;16.60;6.28;;;;;;;17.37;60.67;101042.59;5021476;28;20056;-64
2023/07/02 09:09:27;;;;;;;15.52;6.30;;;;;;;17.36;61.07;101043.63;5022157;28;20029;-64
2023/07/02 09:11:53;;;;;;;18.58;6.20;;;;;;;17.29;61.45;101046.31;5018963;28;20089;-64
2023/07/02 09:14:29;;;;;;;19.17;5.93;;;;;;;17.24;61.31;101042.63;5023427;28;20040;-64
2023/07/02 09:17:05;;;;;;;16.95;6.30;;;;;;;17.32;61.40;101043.22;5024321;28;20029;-64
2023/07/02 09:19:31;;;;;;;19.25;6.15;;;;;;;17.63;61.93;101042.50;5024108;28;20047;-64
2023/07/02 09:22:01;;;;;;;12.85;6.03;;;;;;;17.85;61.42;101048.44;5012433;28;20025;-64
2023/07/02 09:24:29;;;;;;;15.43;5.75;;;;;;;17.93;60.06;101044.72;5018696;28;20056;-64
2023/07/02 09:27:03;;;;;;;15.73;6.03;;;;;;;18.02;60.02;101037.22;5022381;28;20022;-64
2023/07/02 09:29:33;;;;;;;12.20;5.65;;;;;;;18.01;59.33;101031.03;5023474;28;20494;-64
2023/07/02 09:32:00;;;;;;;15.63;5.80;;;;;;;18.15;59.46;101034.44;5016588;28;20021;-65
2023/07/02 09:34:32;;;;;;;17.20;5.90;;;;;;;18.24;58.47;101028.63;5027625;28;20116;-64
2023/07/02 09:36:58;;;;;;;20.50;6.28;;;;;;;18.16;57.52;101044.16;5025280;28;20035;-64
2023/07/02 09:39:31;;;;;;;18.27;6.05;;;;;;;18.00;57.17;101029.38;5027275;28;20116;-64
2023/07/02 09:41:58;;;;;;;18.63;6.18;;;;;;;17.96;57.53;101033.53;5022680;28;20032;-64
2023/07/02 09:44:30;;;;;;;15.05;5.97;;;;;;;17.84;57.75;101038.75;5027388;28;21169;-65
2023/07/02 09:47:02;;;;;;;14.68;5.85;;;;;;;17.72;57.98;101036.94;5027664;28;20029;-64
2023/07/02 09:49:31;;;;;;;15.88;6.05;;;;;;;17.63;58.19;101036.31;5015279;28;20025;-64
2023/07/02 09:52:00;;;;;;;14.52;5.90;;;;;;;17.58;58.39;101045.00;5018365;28;20186;-64
2023/07/02 09:54:25;;;;;;;14.88;5.60;;;;;;;17.50;58.94;101055.97;5026911;28;20033;-64
2023/07/02 09:56:50;;;;;;;14.80;5.75;;;;;;;17.44;58.40;101046.09;5023968;28;20027;-65
2023/07/02 09:59:16;;;;;;;17.55;6.07;;;;;;;17.43;58.68;101041.75;5024412;28;20083;-64
2023/07/02 10:01:41;;;;;;;13.07;5.60;;;;;;;17.43;59.08;101052.50;5017803;28;20110;-64
2023/07/02 10:04:11;;;;;;;15.60;6.15;;;;;;;17.54;58.66;101061.75;5022062;28;20031;-65
2023/07/02 10:06:54;;;;;;;16.23;5.82;;;;;;;17.61;57.46;101046.44;5026201;28;20029;-65
2023/07/02 10:09:42;;;;;;;17.00;6.20;;;;;;;17.92;57.21;101089.53;5020063;28;20033;-65
2023/07/02 10:12:24;;;;;;;16.88;6.57;;;;;;;18.22;57.42;101062.16;5025218;28;20027;-65
2023/07/02 10:14:55;;;;;;;15.75;6.38;;;;;;;18.44;56.20;101068.00;5015760;28;20446;-65
2023/07/02 10:17:24;;;;;;;18.33;6.22;;;;;;;18.46;55.67;101074.78;5022466;28;20029;-65
2023/07/02 10:19:54;;;;;;;19.83;6.32;;;;;;;18.44;55.09;101073.38;5022122;28;20064;-64
2023/07/02 10:22:20;;;;;;;13.48;6.22;;;;;;;18.22;54.36;101084.47;5017095;28;20113;-65
2023/07/02 10:24:52;;;;;;;15.00;6.35;;;;;;;18.12;54.67;101072.50;5024245;28;20751;-65
2023/07/02 10:27:18;;;;;;;15.93;6.57;;;;;;;18.14;54.43;101073.94;5026866;28;20112;-65
2023/07/02 10:29:50;;;;;;;13.32;5.70;;;;;;;18.14;54.41;101084.69;5023835;28;20045;-65
2023/07/02 10:32:26;;;;;;;18.25;6.18;;;;;;;18.14;54.77;101082.00;5024492;28;20033;-65
2023/07/02 10:34:52;;;;;;;13.85;6.22;;;;;;;18.09;54.60;101076.47;5030434;28;20107;-65
2023/07/02 10:37:17;;;;;;;19.48;6.82;;;;;;;18.09;54.80;101081.84;5023767;28;20029;-66
2023/07/02 10:39:42;;;;;;;14.57;6.20;;;;;;;17.95;54.51;101078.41;5025067;28;20028;-65
2023/07/02 10:42:09;;;;;;;14.63;6.30;;;;;;;17.88;54.76;101074.06;5011757;28;20028;-65
2023/07/02 10:44:46;;;;;;;15.98;6.38;;;;;;;17.85;54.82;101075.31;5028544;28;20033;-64
2023/07/02 10:47:11;;;;;;;16.63;6.60;;;;;;;17.85;55.12;101077.19;5023485;28;20036;-65
2023/07/02 10:49:36;;;;;;;14.25;6.10;;;;;;;18.06;56.20;101078.75;5026425;28;20406;-64
2023/07/02 10:52:07;;;;;;;13.00;5.97;;;;;;;18.24;55.96;101079.72;5024902;28;20030;-65
2023/07/02 10:54:46;;;;;;;20.48;6.72;;;;;;;18.33;55.44;101076.75;5012871;28;20517;-65
2023/07/02 10:57:20;;;;;;;17.25;6.68;;;;;;;18.25;55.09;101080.53;5022290;28;20033;-65
2023/07/02 10:59:45;;;;;;;17.95;6.80;;;;;;;18.23;55.52;101074.53;5021542;28;20105;-65
2023/07/02 11:02:11;;;;;;;15.55;6.90;;;;;;;18.23;55.27;101091.50;5017055;28;20211;-64
2023/07/02 11:04:37;;;;;;;14.63;6.72;;;;;;;18.14;55.21;101095.44;5023710;28;20052;-64
2023/07/02 11:07:03;;;;;;;16.90;6.78;;;;;;;18.23;55.27;101090.69;5019104;28;20022;-64
2023/07/02 11:09:28;;;;;;;14.98;6.72;;;;;;;18.32;55.00;101084.00;5017948;28;20502;-65
2023/07/02 11:11:56;;;;;;;16.65;6.72;;;;;;;18.35;54.28;101088.13;5026666;28;20116;-64